createdAt,value
2022-10-04T00:01:03.088Z,94729.13
2022-10-04T00:03:36.055Z,94731.06
2022-10-04T00:06:08.485Z,94726.84
2022-10-04T00:08:43.517Z,94734.00
2022-10-04T00:11:21.217Z,94739.19
2022-10-04T00:13:55.802Z,94740.16
2022-10-04T00:16:29.942Z,94724.44
2022-10-04T00:19:25.234Z,94736.13
2022-10-04T00:22:18.656Z,94728.16
2022-10-04T00:25:20.243Z,94728.50
2022-10-04T00:28:25.517Z,94725.06
2022-10-04T00:31:13.221Z,94721.50
2022-10-04T00:33:42.321Z,94719.41
2022-10-04T00:36:33.696Z,94712.91
2022-10-04T00:39:32.906Z,94716.97
2022-10-04T00:42:14.622Z,94710.81
2022-10-04T00:44:48.224Z,94707.06
2022-10-04T00:47:24.858Z,94691.19
2022-10-04T00:49:58.118Z,94702.72
2022-10-04T00:52:29.783Z,94695.88
2022-10-04T00:55:05.182Z,94683.75
2022-10-04T00:57:40.508Z,94697.69
2022-10-04T01:00:13.491Z,94684.72
2022-10-04T01:02:53.034Z,94693.81
2022-10-04T01:05:24.390Z,94689.28
2022-10-04T01:07:55.835Z,94687.66
2022-10-04T01:10:30.218Z,94704.00
2022-10-04T01:13:05.818Z,94700.44
2022-10-04T01:15:42.877Z,94691.69
2022-10-04T01:18:14.804Z,94688.47
2022-10-04T01:20:54.433Z,94691.22
2022-10-04T01:23:40.685Z,94688.63
2022-10-04T01:26:41.687Z,94693.16
2022-10-04T01:29:13.136Z,94705.19
2022-10-04T01:31:45.082Z,94691.53
2022-10-04T01:34:15.880Z,94678.75
2022-10-04T01:36:46.109Z,94687.97
2022-10-04T01:39:15.045Z,94676.31
2022-10-04T01:41:52.329Z,94684.75
2022-10-04T01:44:28.757Z,94689.94
2022-10-04T01:46:59.951Z,94687.84
2022-10-04T01:49:32.409Z,94689.13
2022-10-04T01:52:06.596Z,94685.91
2022-10-04T01:54:37.859Z,94693.03
2022-10-04T01:57:14.111Z,94690.25
2022-10-04T01:59:47.591Z,94691.09
2022-10-04T02:02:23.493Z,94685.41
2022-10-04T02:04:55.179Z,94695.63
2022-10-04T02:07:26.191Z,94687.69
2022-10-04T02:09:59.576Z,94700.16
2022-10-04T02:12:31.964Z,94703.06
2022-10-04T02:15:02.632Z,94709.38
2022-10-04T02:17:33.215Z,94700.16
2022-10-04T02:20:02.992Z,94702.75
2022-10-04T02:22:31.921Z,94698.53
2022-10-04T02:25:00.534Z,94706.47
2022-10-04T02:27:31.353Z,94703.22
2022-10-04T02:30:02.717Z,94702.09
2022-10-04T02:32:52.399Z,94695.78
2022-10-04T02:35:21.397Z,94699.34
2022-10-04T02:37:54.799Z,94696.41
2022-10-04T02:40:30.199Z,94698.38
2022-10-04T02:43:05.932Z,94702.91
2022-10-04T02:45:43.472Z,94703.53
2022-10-04T02:48:35.931Z,94703.19
2022-10-04T02:51:15.819Z,94703.38
2022-10-04T02:53:53.967Z,94703.19
2022-10-04T02:56:23.801Z,94704.34
2022-10-04T02:58:53.925Z,94703.66
2022-10-04T03:01:27.974Z,94704.66
2022-10-04T03:03:58.203Z,94709.00
2022-10-04T03:06:33.634Z,94702.88
2022-10-04T03:09:05.540Z,94705.78
2022-10-04T03:11:37.177Z,94707.09
2022-10-04T03:14:11.015Z,94711.44
2022-10-04T03:16:42.145Z,94716.31
2022-10-04T03:19:11.728Z,94713.72
2022-10-04T03:21:41.754Z,94713.41
2022-10-04T03:24:16.447Z,94709.03
2022-10-04T03:26:47.096Z,94711.13
2022-10-04T03:29:19.278Z,94718.28
2022-10-04T03:31:49.526Z,94725.91
2022-10-04T03:34:20.978Z,94723.47
2022-10-04T03:36:50.930Z,94726.19
2022-10-04T03:39:28.404Z,94721.84
2022-10-04T03:41:58.917Z,94723.59
2022-10-04T03:44:28.451Z,94738.38
2022-10-04T03:46:56.750Z,94723.47
2022-10-04T03:49:33.607Z,94733.19
2022-10-04T03:52:03.299Z,94740.00
2022-10-04T03:54:33.304Z,94737.22
2022-10-04T03:57:03.000Z,94739.31
2022-10-04T03:59:32.542Z,94742.91
2022-10-04T04:02:11.576Z,94748.41
2022-10-04T04:04:50.829Z,94745.19
2022-10-04T04:07:25.766Z,94742.09
2022-10-04T04:09:58.306Z,94743.53
2022-10-04T04:12:36.265Z,94752.94
2022-10-04T04:15:08.133Z,94745.31
2022-10-04T04:17:39.100Z,94757.13
2022-10-04T04:20:23.502Z,94753.91
2022-10-04T04:22:59.892Z,94760.06
2022-10-04T04:25:29.812Z,94759.38
2022-10-04T04:28:06.630Z,94759.06
2022-10-04T04:30:39.693Z,94753.88
2022-10-04T04:33:20.363Z,94758.25
2022-10-04T04:35:49.351Z,94768.78
2022-10-04T04:38:21.937Z,94756.19
2022-10-04T04:40:50.951Z,94758.25
2022-10-04T04:43:20.648Z,94762.94
2022-10-04T04:46:03.237Z,94760.69
2022-10-04T04:48:38.881Z,94762.59
2022-10-04T04:51:07.075Z,94778.38
2022-10-04T04:53:35.796Z,94777.88
2022-10-04T04:56:10.397Z,94781.44
2022-10-04T04:58:43.611Z,94786.16
2022-10-04T05:01:22.639Z,94788.41
2022-10-04T05:04:02.187Z,94786.00
2022-10-04T05:06:31.765Z,94784.34
2022-10-04T05:08:59.852Z,94792.63
2022-10-04T05:11:31.105Z,94799.13
2022-10-04T05:14:01.983Z,94785.69
2022-10-04T05:16:38.133Z,94803.22
2022-10-04T05:19:10.026Z,94799.31
2022-10-04T05:21:43.617Z,94805.97
2022-10-04T05:24:17.648Z,94794.94
2022-10-04T05:26:45.738Z,94809.72
2022-10-04T05:29:18.402Z,94802.44
2022-10-04T05:31:54.470Z,94806.81
2022-10-04T05:34:25.745Z,94804.34
2022-10-04T05:37:13.333Z,94803.41
2022-10-04T05:39:46.426Z,94821.88
2022-10-04T05:42:22.756Z,94817.69
2022-10-04T05:44:53.020Z,94817.34
2022-10-04T05:47:26.603Z,94810.88
2022-10-04T05:49:57.294Z,94825.97
2022-10-04T05:52:41.701Z,94832.63
2022-10-04T05:55:18.363Z,94827.59
2022-10-04T05:57:58.874Z,94838.16
2022-10-04T06:00:37.105Z,94833.75
2022-10-04T06:03:34.997Z,94842.38
2022-10-04T06:06:13.910Z,94848.72
2022-10-04T06:08:53.108Z,94855.53
2022-10-04T06:11:33.847Z,94865.75
2022-10-04T06:14:25.698Z,94862.66
2022-10-04T06:17:20.672Z,94870.47
2022-10-04T06:20:08.704Z,94861.41
2022-10-04T06:22:44.784Z,94864.97
2022-10-04T06:25:17.588Z,94865.97
2022-10-04T06:27:54.072Z,94869.22
2022-10-04T06:30:22.586Z,94873.72
2022-10-04T06:33:20.644Z,94884.13
2022-10-04T06:36:15.081Z,94884.13
2022-10-04T06:39:07.923Z,94885.75
2022-10-04T06:42:05.708Z,94870.66
2022-10-04T06:44:49.077Z,94887.75
2022-10-04T06:47:26.493Z,94889.97
2022-10-04T06:49:58.390Z,94901.38
2022-10-04T06:52:38.394Z,94908.69
2022-10-04T06:55:41.386Z,94914.69
2022-10-04T06:58:46.358Z,94908.84
2022-10-04T07:01:25.494Z,94919.72
2022-10-04T07:04:03.246Z,94907.06
2022-10-04T07:06:38.244Z,94913.03
2022-10-04T07:09:17.693Z,94927.66
2022-10-04T07:11:52.343Z,94914.19
2022-10-04T07:14:25.539Z,94918.25
2022-10-04T07:16:59.714Z,94918.72
2022-10-04T07:19:36.257Z,94915.66
2022-10-04T07:22:17.876Z,94928.34
2022-10-04T07:24:54.838Z,94917.28
2022-10-04T07:27:29.597Z,94941.31
2022-10-04T07:29:59.129Z,94932.69
2022-10-04T07:32:29.630Z,94950.03
2022-10-04T07:35:03.516Z,94945.63
2022-10-04T07:37:36.085Z,94952.50
2022-10-04T07:40:11.248Z,94961.59
2022-10-04T07:42:48.356Z,94963.34
2022-10-04T07:45:20.849Z,94948.53
2022-10-04T07:47:48.977Z,94964.28
2022-10-04T07:50:27.888Z,94971.44
2022-10-04T07:53:07.124Z,94978.44
2022-10-04T07:55:51.028Z,94969.50
2022-10-04T07:58:45.965Z,94989.34
2022-10-04T08:01:25.403Z,94986.28
2022-10-04T08:04:04.056Z,94977.03
2022-10-04T08:06:37.677Z,94974.88
2022-10-04T08:09:25.556Z,94982.28
2022-10-04T08:12:03.937Z,94975.31
2022-10-04T08:14:51.135Z,94966.03
2022-10-04T08:17:28.479Z,94978.66
2022-10-04T08:20:05.062Z,94982.06
2022-10-04T08:22:43.406Z,94984.88
2022-10-04T08:25:19.640Z,94976.53
2022-10-04T08:28:18.381Z,94983.84
2022-10-04T08:31:09.337Z,94974.72
2022-10-04T08:33:59.074Z,94976.94
2022-10-04T08:36:40.953Z,94978.56
2022-10-04T08:39:27.031Z,94986.25
2022-10-04T08:42:53.776Z,94975.28
2022-10-04T08:46:04.644Z,94975.81
2022-10-04T08:49:17.684Z,94976.28
2022-10-04T08:52:12.735Z,94979.00
2022-10-04T08:55:16.059Z,94962.59
2022-10-04T08:58:01.640Z,94978.94
2022-10-04T09:00:46.907Z,94980.19
2022-10-04T09:06:22.386Z,94979.28
2022-10-04T09:09:34.910Z,94980.31
2022-10-04T09:12:45.583Z,94976.03
2022-10-04T09:15:27.662Z,94980.38
2022-10-04T09:18:03.585Z,94986.59
2022-10-04T09:20:50.442Z,94968.25
2022-10-04T09:23:43.354Z,94970.41
2022-10-04T09:26:22.512Z,94979.75
2022-10-04T09:29:23.381Z,94995.03
2022-10-04T09:32:25.383Z,94989.81
2022-10-04T09:35:24.310Z,94966.81
2022-10-04T09:38:09.324Z,94980.56
2022-10-04T09:41:13.082Z,94979.44
2022-10-04T09:44:13.759Z,94975.06
2022-10-04T09:47:24.374Z,94968.53
2022-10-04T09:50:35.682Z,94983.47
2022-10-04T09:53:21.252Z,94968.13
2022-10-04T09:56:31.824Z,94985.00
2022-10-04T09:59:22.083Z,94969.72
2022-10-04T10:02:13.264Z,94964.75
2022-10-04T10:04:50.324Z,94977.91
2022-10-04T10:07:40.199Z,94986.84
2022-10-04T10:10:37.036Z,94961.88
2022-10-04T10:13:43.041Z,94976.91
2022-10-04T10:16:29.989Z,94976.50
2022-10-04T10:19:13.324Z,94988.78
2022-10-04T10:21:55.247Z,94967.06
2022-10-04T10:25:01.205Z,94982.31
2022-10-04T10:27:56.713Z,94967.56
2022-10-04T10:30:31.318Z,94976.75
2022-10-04T10:33:20.717Z,94988.09
2022-10-04T10:36:03.859Z,94986.09
2022-10-04T10:38:48.395Z,94981.13
2022-10-04T10:41:35.758Z,94970.47
2022-10-04T10:44:26.760Z,94980.69
2022-10-04T10:47:08.493Z,94978.59
2022-10-04T10:49:52.450Z,94988.84
2022-10-04T10:52:59.513Z,94990.97
2022-10-04T10:55:54.809Z,94989.31
2022-10-04T10:59:01.767Z,94986.41
2022-10-04T11:02:05.015Z,94997.72
2022-10-04T11:04:45.425Z,94976.16
2022-10-04T11:07:29.990Z,94980.91
2022-10-04T11:10:32.374Z,94988.06
2022-10-04T11:13:27.103Z,94985.66
2022-10-04T11:16:34.427Z,94989.53
2022-10-04T11:19:53.030Z,94989.81
2022-10-04T11:22:54.120Z,95000.03
2022-10-04T11:26:04.204Z,94988.63
2022-10-04T11:28:47.574Z,94990.41
2022-10-04T11:31:55.619Z,94984.31
2022-10-04T11:34:58.345Z,94996.25
2022-10-04T11:37:47.441Z,94984.31
2022-10-04T11:40:31.809Z,94998.72
2022-10-04T11:43:26.503Z,94986.31
2022-10-04T11:46:36.033Z,94978.53
2022-10-04T11:49:25.692Z,94995.94
2022-10-04T11:52:13.183Z,94991.28
2022-10-04T11:55:23.491Z,94996.31
2022-10-04T11:57:55.055Z,94983.78
2022-10-04T12:00:25.533Z,94992.72
2022-10-04T12:03:29.265Z,94995.50
2022-10-04T12:06:25.601Z,94992.06
2022-10-04T12:09:05.282Z,94994.06
2022-10-04T12:12:11.378Z,94991.81
2022-10-04T12:15:04.422Z,95004.03
2022-10-04T12:18:06.413Z,94987.78
2022-10-04T12:21:04.212Z,95002.50
2022-10-04T12:24:04.297Z,94979.25
2022-10-04T12:26:52.818Z,94986.28
2022-10-04T12:30:15.953Z,94985.88
2022-10-04T12:32:57.954Z,94998.56
2022-10-04T12:35:35.544Z,95001.22
2022-10-04T12:38:40.206Z,94992.72
2022-10-04T12:41:18.522Z,94993.81
2022-10-04T12:43:56.821Z,94993.94
2022-10-04T12:46:39.027Z,95004.97
2022-10-04T12:49:22.391Z,94990.38
2022-10-04T12:51:57.690Z,94993.13
2022-10-04T12:54:44.178Z,95002.44
2022-10-04T12:57:33.855Z,95002.84
2022-10-04T13:00:14.373Z,95001.19
2022-10-04T13:03:23.996Z,94994.41
2022-10-04T13:06:02.961Z,95003.84
2022-10-04T13:08:45.738Z,94994.34
2022-10-04T13:11:33.495Z,94997.78
2022-10-04T13:14:37.771Z,94999.66
2022-10-04T13:17:35.749Z,94996.38
2022-10-04T13:20:19.905Z,94982.22
2022-10-04T13:22:57.357Z,94994.88
2022-10-04T13:25:41.352Z,94990.47
2022-10-04T13:28:24.238Z,94974.13
2022-10-04T13:31:01.400Z,94971.91
2022-10-04T13:33:41.626Z,94989.44
2022-10-04T13:36:14.270Z,94989.06
2022-10-04T13:39:07.297Z,94987.31
2022-10-04T13:42:01.474Z,94986.91
2022-10-04T13:44:58.269Z,94997.00
2022-10-04T13:47:43.604Z,95003.84
2022-10-04T13:50:35.701Z,94996.66
2022-10-04T13:53:38.811Z,95003.47
2022-10-04T13:56:40.014Z,95001.41
2022-10-04T13:59:17.265Z,94998.66
2022-10-04T14:02:21.280Z,95010.59
2022-10-04T14:05:27.852Z,95021.66
2022-10-04T14:08:11.369Z,95020.44
2022-10-04T14:11:02.478Z,95003.88
2022-10-04T14:14:10.453Z,95018.34
2022-10-04T14:17:13.052Z,95030.50
2022-10-04T14:20:04.765Z,95027.38
2022-10-04T14:23:14.776Z,95024.22
2022-10-04T14:26:11.190Z,95022.16
2022-10-04T14:29:20.638Z,95039.59
2022-10-04T14:32:14.833Z,95030.47
2022-10-04T14:35:04.517Z,95040.63
2022-10-04T14:38:06.031Z,95032.50
2022-10-04T14:41:04.237Z,95046.19
2022-10-04T14:44:11.610Z,95045.47
2022-10-04T14:46:51.747Z,95052.50
2022-10-04T14:49:30.031Z,95047.91
2022-10-04T14:52:09.001Z,95058.06
2022-10-04T14:54:46.805Z,95063.31
2022-10-04T14:57:22.875Z,95062.91
2022-10-04T15:00:05.135Z,95060.75
2022-10-04T15:02:56.445Z,95081.31
2022-10-04T15:05:37.182Z,95096.78
2022-10-04T15:08:38.947Z,95084.66
2022-10-04T15:11:09.801Z,95076.59
2022-10-04T15:13:55.531Z,95084.31
2022-10-04T15:16:38.448Z,95096.63
2022-10-04T15:19:12.333Z,95095.63
2022-10-04T15:21:46.508Z,95101.22
2022-10-04T15:24:33.697Z,95105.31
2022-10-04T15:27:44.623Z,95127.81
2022-10-04T15:30:23.059Z,95122.31
2022-10-04T15:33:01.604Z,95113.88
2022-10-04T15:35:38.168Z,95109.88
2022-10-04T15:38:21.226Z,95120.31
2022-10-04T15:41:04.133Z,95115.44
2022-10-04T15:43:56.561Z,95124.94
2022-10-04T15:46:43.337Z,95129.25
2022-10-04T15:49:37.242Z,95127.19
2022-10-04T15:52:18.271Z,95128.00
2022-10-04T15:55:18.488Z,95133.69
2022-10-04T15:58:17.170Z,95131.75
2022-10-04T16:00:55.651Z,95133.94
2022-10-04T16:03:35.642Z,95137.69
2022-10-04T16:06:09.708Z,95136.41
2022-10-04T16:08:50.624Z,95141.59
2022-10-04T16:11:33.717Z,95140.78
2022-10-04T16:14:28.692Z,95141.44
2022-10-04T16:17:44.127Z,95148.59
2022-10-04T16:20:36.561Z,95152.88
2022-10-04T16:23:33.411Z,95157.44
2022-10-04T16:26:03.992Z,95152.56
2022-10-04T16:29:09.307Z,95162.47
2022-10-04T16:31:57.144Z,95158.72
2022-10-04T16:34:51.580Z,95168.50
2022-10-04T16:40:38.762Z,95175.50
2022-10-04T16:43:13.314Z,95178.94
2022-10-04T16:46:04.186Z,95174.38
2022-10-04T16:48:40.124Z,95189.34
2022-10-04T16:51:50.616Z,95195.22
2022-10-04T16:54:58.180Z,95198.94
2022-10-04T16:57:29.465Z,95193.09
2022-10-04T17:00:00.619Z,95206.28
2022-10-04T17:02:54.218Z,95205.28
2022-10-04T17:05:36.875Z,95207.44
2022-10-04T17:08:27.683Z,95207.09
2022-10-04T17:11:37.178Z,95217.34
2022-10-04T17:14:31.687Z,95214.59
2022-10-04T17:17:07.659Z,95226.94
2022-10-04T17:19:45.554Z,95223.19
2022-10-04T17:22:25.462Z,95222.41
2022-10-04T17:25:18.776Z,95226.13
2022-10-04T17:27:52.090Z,95234.94
2022-10-04T17:30:24.071Z,95239.97
2022-10-04T17:33:21.921Z,95240.78
2022-10-04T17:36:17.133Z,95241.41
2022-10-04T17:38:55.858Z,95246.16
2022-10-04T17:41:34.578Z,95244.69
2022-10-04T17:44:22.794Z,95238.00
2022-10-04T17:47:01.538Z,95252.81
2022-10-04T17:49:57.231Z,95252.97
2022-10-04T17:52:51.891Z,95249.41
2022-10-04T17:55:28.841Z,95261.28
2022-10-04T17:58:03.630Z,95268.44
2022-10-04T18:00:51.433Z,95266.97
2022-10-04T18:03:24.701Z,95267.63
2022-10-04T18:05:57.032Z,95274.28
2022-10-04T18:08:46.892Z,95273.16
2022-10-04T18:11:24.254Z,95286.34
2022-10-04T18:13:58.350Z,95282.78
2022-10-04T18:16:30.584Z,95284.41
2022-10-04T18:19:26.336Z,95281.44
2022-10-04T18:21:56.529Z,95290.56
2022-10-04T18:24:30.950Z,95302.09
2022-10-04T18:27:02.621Z,95294.75
2022-10-04T18:29:39.718Z,95295.06
2022-10-04T18:32:31.291Z,95302.91
2022-10-04T18:35:03.820Z,95299.16
2022-10-04T18:37:39.759Z,95301.28
2022-10-04T18:40:17.797Z,95300.97
2022-10-04T18:42:53.283Z,95297.19
2022-10-04T18:45:24.304Z,95287.59
2022-10-04T18:47:53.190Z,95279.44
2022-10-04T18:50:33.790Z,95297.47
2022-10-04T18:53:41.911Z,95290.16
2022-10-04T18:56:11.781Z,95302.81
2022-10-04T18:59:19.241Z,95303.97
2022-10-04T19:02:03.542Z,95305.88
2022-10-04T19:04:45.166Z,95300.50
2022-10-04T19:07:17.202Z,95314.88
2022-10-04T19:10:15.009Z,95313.41
2022-10-04T19:12:53.267Z,95319.75
2022-10-04T19:15:35.036Z,95316.16
2022-10-04T19:18:17.139Z,95302.16
2022-10-04T19:20:51.208Z,95313.50
2022-10-04T19:23:27.363Z,95318.13
2022-10-04T19:26:29.845Z,95322.84
2022-10-04T19:28:54.786Z,95321.66
2022-10-04T19:31:28.118Z,95317.41
2022-10-04T19:34:05.578Z,95326.53
2022-10-04T19:36:48.589Z,95322.59
2022-10-04T19:39:32.204Z,95321.41
2022-10-04T19:42:02.855Z,95328.53
2022-10-04T19:44:45.985Z,95330.66
2022-10-04T19:47:35.259Z,95316.13
2022-10-04T19:50:09.172Z,95322.63
2022-10-04T19:52:44.974Z,95316.47
2022-10-04T19:55:23.252Z,95312.38
2022-10-04T19:57:54.902Z,95321.44
2022-10-04T20:00:22.926Z,95305.41
2022-10-04T20:02:51.522Z,95318.47
2022-10-04T20:05:25.069Z,95318.47
2022-10-04T20:07:57.137Z,95321.22
2022-10-04T20:10:34.689Z,95317.47
2022-10-04T20:13:25.492Z,95329.94
2022-10-04T20:15:55.698Z,95330.47
2022-10-04T20:18:52.317Z,95334.44
2022-10-04T20:21:31.422Z,95337.00
2022-10-04T20:24:01.460Z,95336.94
2022-10-04T20:26:55.917Z,95341.84
2022-10-04T20:30:06.966Z,95337.91
2022-10-04T20:33:07.518Z,95338.00
2022-10-04T20:35:59.392Z,95333.16
2022-10-04T20:39:02.101Z,95332.84
2022-10-04T20:42:22.756Z,95333.81
2022-10-04T20:44:57.368Z,95334.66
2022-10-04T20:47:52.931Z,95339.84
2022-10-04T20:50:31.323Z,95338.72
2022-10-04T20:53:02.885Z,95332.50
2022-10-04T20:55:34.989Z,95336.72
2022-10-04T20:58:05.170Z,95346.53
2022-10-04T21:00:35.878Z,95347.88
2022-10-04T21:03:14.036Z,95343.47
2022-10-04T21:05:42.155Z,95349.00
2022-10-04T21:08:23.952Z,95351.75
2022-10-04T21:11:26.582Z,95354.09
2022-10-04T21:14:00.123Z,95346.41
2022-10-04T21:16:41.268Z,95346.41
2022-10-04T21:19:31.789Z,95345.00
2022-10-04T21:22:00.817Z,95348.34
2022-10-04T21:24:35.881Z,95349.13
2022-10-04T21:27:04.956Z,95342.78
2022-10-04T21:29:33.194Z,95349.06
2022-10-04T21:32:02.626Z,95342.72
2022-10-04T21:34:51.914Z,95339.97
2022-10-04T21:37:19.064Z,95346.47
2022-10-04T21:39:47.260Z,95348.13
2022-10-04T21:42:17.748Z,95337.44
2022-10-04T21:44:45.661Z,95334.03
2022-10-04T21:47:15.391Z,95332.81
2022-10-04T21:49:43.343Z,95336.53
2022-10-04T21:52:11.246Z,95329.69
2022-10-04T21:54:39.384Z,95330.91
2022-10-04T21:57:07.324Z,95330.91
2022-10-04T21:59:35.210Z,95337.59
2022-10-04T22:02:03.271Z,95338.91
2022-10-04T22:04:32.784Z,95335.03
2022-10-04T22:07:00.767Z,95337.00
2022-10-04T22:09:29.177Z,95341.88
2022-10-04T22:11:57.390Z,95345.31
2022-10-04T22:14:25.315Z,95337.66
2022-10-04T22:16:56.826Z,95345.44
2022-10-04T22:19:24.835Z,95349.97
2022-10-04T22:21:54.057Z,95350.94
2022-10-04T22:24:22.799Z,95356.41
2022-10-04T22:26:50.730Z,95344.25
2022-10-04T22:29:19.949Z,95351.09
2022-10-04T22:31:51.599Z,95352.31
2022-10-04T22:34:21.418Z,95353.16
2022-10-04T22:36:51.428Z,95356.03
2022-10-04T22:39:22.024Z,95354.63
2022-10-04T22:41:56.705Z,95355.38
2022-10-04T22:44:28.763Z,95352.78
2022-10-04T22:46:58.785Z,95350.47
2022-10-04T22:49:29.155Z,95352.69
2022-10-04T22:51:58.923Z,95361.31
2022-10-04T22:54:32.682Z,95354.91
2022-10-04T22:57:01.087Z,95357.50
2022-10-04T22:59:35.819Z,95358.19
2022-10-04T23:02:08.656Z,95348.47
2022-10-04T23:04:36.555Z,95341.13
2022-10-04T23:07:07.635Z,95349.13
2022-10-04T23:09:36.976Z,95347.38
2022-10-04T23:12:08.162Z,95341.19
2022-10-04T23:14:37.344Z,95345.16
2022-10-04T23:17:19.679Z,95345.53
2022-10-04T23:19:47.634Z,95337.59
2022-10-04T23:22:20.642Z,95337.50
2022-10-04T23:24:52.390Z,95337.00
2022-10-04T23:27:20.877Z,95337.00
2022-10-04T23:29:49.532Z,95338.16
2022-10-04T23:32:19.856Z,95342.09
2022-10-04T23:34:56.401Z,95341.34
2022-10-04T23:37:28.614Z,95346.31
2022-10-04T23:39:58.032Z,95354.41
2022-10-04T23:42:29.767Z,95349.81
2022-10-04T23:44:58.842Z,95343.03
2022-10-04T23:47:32.838Z,95345.09
2022-10-04T23:50:00.877Z,95346.91
2022-10-04T23:52:35.867Z,95341.91
2022-10-04T23:55:17.218Z,95345.91
2022-10-04T23:57:45.220Z,95348.53
